Edward F Knapp State Airport Barre, Montpelier US
ICAO: KMPV
IATA: MPV
Category: Medium
Scheduled Services: No

Elevation: 1166 ft
TransAlt. 18000 ft.

Airport Communications:
ASOS:132.675
BOSTON CNTR:135.7
BURLINGTON RDO:122.6
CTAF/UNICOM:122.8

KMPV Zoom In..

If Map Doesn't Load, Click Here

Runways:

(A) RW 05 length 4022 ft width 100 ft
---- / hdg 48

(B) RW 17 length 5002 ft width 100 ft
ILS 108.70 / hdg 168

(C) RW 23 length 4022 ft width 100 ft
---- / hdg 228

(D) RW 35 length 5002 ft width 100 ft
---- / hdg 348

Location; KMPV
Day. 23 / Time. 07.51 Zulu
* Altimeter: 30.28
* Temperature: 03° c. 37.4°f.
* Wind from: 210° Speed 03 kn.
Dewpoint: 03° c.
Visibility: 1/4 Statute Miles.
Conditions: Fog.

KMPV 230751Z AUTO 21003KT 1/4SM FG VV001 03/03 A3028 RMK AO2 SLP262 T00280028 $


Wind From 210°
Speed 03 kn.

 
 
jpsmedia.com for Web Design worldairports.se 2018   terms of use